createdAt,value
2019-04-03T00:00:34.493Z,999.48
2019-04-03T00:01:34.729Z,999.55
2019-04-03T00:02:34.789Z,999.50
2019-04-03T00:03:34.891Z,999.48
2019-04-03T00:04:34.793Z,999.50
2019-04-03T00:05:35.481Z,999.49
2019-04-03T00:06:35.316Z,999.46
2019-04-03T00:07:35.840Z,999.40
2019-04-03T00:08:34.774Z,999.37
2019-04-03T00:09:35.827Z,999.39
2019-04-03T00:10:34.322Z,999.42
2019-04-03T00:11:34.148Z,999.38
2019-04-03T00:12:34.187Z,999.32
2019-04-03T00:13:34.186Z,999.35
2019-04-03T00:14:34.174Z,999.38
2019-04-03T00:15:34.115Z,999.41
2019-04-03T00:16:34.259Z,999.37
2019-04-03T00:17:34.085Z,999.43
2019-04-03T00:18:34.093Z,999.46
2019-04-03T00:19:34.123Z,999.44
2019-04-03T00:20:34.075Z,999.44
2019-04-03T00:21:34.049Z,999.46
2019-04-03T00:22:34.048Z,999.50
2019-04-03T00:23:34.021Z,999.55
2019-04-03T00:24:34.013Z,999.54
2019-04-03T00:25:34.001Z,999.56
2019-04-03T00:26:33.984Z,999.66
2019-04-03T00:27:34.025Z,999.60
2019-04-03T00:28:33.987Z,999.57
2019-04-03T00:29:33.961Z,999.53
2019-04-03T00:30:33.938Z,999.50
2019-04-03T00:31:33.931Z,999.49
2019-04-03T00:32:33.925Z,999.46
2019-04-03T00:33:33.911Z,999.48
2019-04-03T00:34:33.917Z,999.48
2019-04-03T00:35:33.910Z,999.45
2019-04-03T00:36:33.893Z,999.46
2019-04-03T00:37:33.907Z,999.48
2019-04-03T00:38:33.850Z,999.48
2019-04-03T00:39:33.839Z,999.43
2019-04-03T00:40:33.988Z,999.48
2019-04-03T00:41:33.836Z,999.43
2019-04-03T00:42:34.002Z,999.49
2019-04-03T00:43:33.891Z,999.44
2019-04-03T00:44:33.786Z,999.42
2019-04-03T00:45:33.778Z,999.47
2019-04-03T00:46:33.806Z,999.41
2019-04-03T00:47:33.755Z,999.42
2019-04-03T00:48:33.745Z,999.47
2019-04-03T00:49:33.796Z,999.45
2019-04-03T00:50:33.724Z,999.46
2019-04-03T00:51:33.777Z,999.38
2019-04-03T00:52:33.705Z,999.37
2019-04-03T00:53:33.684Z,999.40
2019-04-03T00:54:33.714Z,999.38
2019-04-03T00:55:33.723Z,999.43
2019-04-03T00:56:33.695Z,999.47
2019-04-03T00:57:33.762Z,999.46
2019-04-03T00:58:33.639Z,999.52
2019-04-03T00:59:33.660Z,999.57
2019-04-03T01:00:33.634Z,999.55
2019-04-03T01:01:33.610Z,999.53
2019-04-03T01:02:33.584Z,999.55
2019-04-03T01:03:33.651Z,999.60
2019-04-03T01:04:33.589Z,999.65
2019-04-03T01:05:33.570Z,999.74
2019-04-03T01:06:33.569Z,999.68
2019-04-03T01:07:33.540Z,999.62
2019-04-03T01:08:33.523Z,999.62
2019-04-03T01:09:33.513Z,999.69
2019-04-03T01:10:33.595Z,999.70
2019-04-03T01:11:33.640Z,999.72
2019-04-03T01:12:33.635Z,999.73
2019-04-03T01:13:33.465Z,999.68
2019-04-03T01:14:33.469Z,999.68
2019-04-03T01:15:34.434Z,999.65
2019-04-03T01:16:33.668Z,999.61
2019-04-03T01:17:34.881Z,999.60
2019-04-03T01:18:35.282Z,999.61
2019-04-03T01:19:36.122Z,999.58
2019-04-03T01:20:34.588Z,999.59
2019-04-03T01:21:33.382Z,999.59
2019-04-03T01:22:33.379Z,999.59
2019-04-03T01:23:33.463Z,999.60
2019-04-03T01:24:33.374Z,999.59
2019-04-03T01:25:33.333Z,999.65
2019-04-03T01:26:33.327Z,999.59
2019-04-03T01:27:33.315Z,999.62
2019-04-03T01:28:33.302Z,999.66
2019-04-03T01:29:33.317Z,999.61
2019-04-03T01:30:33.285Z,999.62
2019-04-03T01:31:33.272Z,999.63
2019-04-03T01:32:33.456Z,999.61
2019-04-03T01:33:33.376Z,999.60
2019-04-03T01:34:33.263Z,999.62
2019-04-03T01:35:33.233Z,999.58
2019-04-03T01:36:33.402Z,999.56
2019-04-03T01:37:33.282Z,999.51
2019-04-03T01:38:33.197Z,999.56
2019-04-03T01:39:33.316Z,999.46
2019-04-03T01:40:33.195Z,999.51
2019-04-03T01:41:33.203Z,999.56
2019-04-03T01:42:33.171Z,999.49
2019-04-03T01:43:33.139Z,999.56
2019-04-03T01:44:33.137Z,999.60
2019-04-03T01:45:33.115Z,999.60
2019-04-03T01:46:33.303Z,999.57
2019-04-03T01:47:33.121Z,999.59
2019-04-03T01:48:33.081Z,999.60
2019-04-03T01:49:33.072Z,999.53
2019-04-03T01:50:33.088Z,999.54
2019-04-03T01:51:33.048Z,999.53
2019-04-03T01:52:33.041Z,999.54
2019-04-03T01:53:33.228Z,999.57
2019-04-03T01:54:33.741Z,999.58
2019-04-03T01:55:34.701Z,999.59
2019-04-03T01:56:33.866Z,999.50
2019-04-03T01:57:32.983Z,999.53
2019-04-03T01:58:33.076Z,999.47
2019-04-03T01:59:32.960Z,999.47
2019-04-03T02:00:32.959Z,999.43
2019-04-03T02:01:32.950Z,999.45
2019-04-03T02:02:32.937Z,999.46
2019-04-03T02:03:33.030Z,999.49
2019-04-03T02:04:32.916Z,999.56
2019-04-03T02:05:32.903Z,999.55
2019-04-03T02:06:32.903Z,999.57
2019-04-03T02:07:32.939Z,999.52
2019-04-03T02:08:32.865Z,999.48
2019-04-03T02:09:32.876Z,999.57
2019-04-03T02:10:32.871Z,999.44
2019-04-03T02:11:32.849Z,999.50
2019-04-03T02:12:32.873Z,999.43
2019-04-03T02:13:32.822Z,999.42
2019-04-03T02:14:32.800Z,999.41
2019-04-03T02:15:32.933Z,999.44
2019-04-03T02:16:32.798Z,999.45
2019-04-03T02:17:32.773Z,999.49
2019-04-03T02:18:32.759Z,999.46
2019-04-03T02:19:32.749Z,999.39
2019-04-03T02:20:32.730Z,999.44
2019-04-03T02:21:32.718Z,999.39
2019-04-03T02:22:32.803Z,999.44
2019-04-03T02:23:32.717Z,999.46
2019-04-03T02:24:32.684Z,999.51
2019-04-03T02:25:32.690Z,999.51
2019-04-03T02:26:33.072Z,999.52
2019-04-03T02:27:33.284Z,999.54
2019-04-03T02:28:34.191Z,999.50
2019-04-03T02:29:32.662Z,999.43
2019-04-03T02:30:32.812Z,999.39
2019-04-03T02:31:32.617Z,999.40
2019-04-03T02:32:32.600Z,999.42
2019-04-03T02:33:32.587Z,999.41
2019-04-03T02:34:34.667Z,999.45
2019-04-03T02:35:32.567Z,999.47
2019-04-03T02:36:32.573Z,999.49
2019-04-03T02:37:32.549Z,999.46
2019-04-03T02:38:32.670Z,999.49
2019-04-03T02:39:32.562Z,999.56
2019-04-03T02:40:33.128Z,999.55
2019-04-03T02:41:35.403Z,999.49
2019-04-03T02:42:32.707Z,999.50
2019-04-03T02:43:32.489Z,999.47
2019-04-03T02:44:32.462Z,999.48
2019-04-03T02:45:32.759Z,999.49
2019-04-03T02:46:32.465Z,999.44
2019-04-03T02:47:33.926Z,999.40
2019-04-03T02:48:32.708Z,999.38
2019-04-03T02:49:32.407Z,999.30
2019-04-03T02:50:32.407Z,999.21
2019-04-03T02:51:32.386Z,999.25
2019-04-03T02:52:32.406Z,999.26
2019-04-03T02:53:32.359Z,999.28
2019-04-03T02:54:34.733Z,999.28
2019-04-03T02:55:32.354Z,999.29
2019-04-03T02:56:32.357Z,999.26
2019-04-03T02:57:32.324Z,999.35
2019-04-03T02:58:32.338Z,999.36
2019-04-03T02:59:32.348Z,999.33
2019-04-03T03:00:33.793Z,999.35
2019-04-03T03:01:32.274Z,999.34
2019-04-03T03:02:32.298Z,999.29
2019-04-03T03:03:32.465Z,999.31
2019-04-03T03:04:32.251Z,999.35
2019-04-03T03:05:32.242Z,999.33
2019-04-03T03:06:33.454Z,999.39
2019-04-03T03:07:35.735Z,999.34
2019-04-03T03:08:32.382Z,999.29
2019-04-03T03:09:32.202Z,999.32
2019-04-03T03:10:32.190Z,999.32
2019-04-03T03:11:32.180Z,999.35
2019-04-03T03:12:32.253Z,999.36
2019-04-03T03:13:34.663Z,999.32
2019-04-03T03:14:32.137Z,999.35
2019-04-03T03:15:32.463Z,999.31
2019-04-03T03:16:32.108Z,999.31
2019-04-03T03:17:32.100Z,999.31
2019-04-03T03:18:32.089Z,999.29
2019-04-03T03:19:33.461Z,999.29
2019-04-03T03:20:32.065Z,999.26
2019-04-03T03:21:32.090Z,999.26
2019-04-03T03:22:32.166Z,999.27
2019-04-03T03:23:32.034Z,999.25
2019-04-03T03:24:32.025Z,999.26
2019-04-03T03:25:33.589Z,999.25
2019-04-03T03:26:32.005Z,999.22
2019-04-03T03:27:32.014Z,999.20
2019-04-03T03:28:31.990Z,999.23
2019-04-03T03:29:31.969Z,999.20
2019-04-03T03:30:41.345Z,999.18
2019-04-03T03:31:59.780Z,999.20
2019-04-03T03:32:35.302Z,999.21
2019-04-03T03:33:36.427Z,999.23
2019-04-03T03:34:50.384Z,999.22
2019-04-03T03:35:40.391Z,999.22
2019-04-03T03:36:33.430Z,999.23
2019-04-03T03:37:34.079Z,999.26
2019-04-03T03:38:32.059Z,999.21
2019-04-03T03:39:31.871Z,999.22
2019-04-03T03:40:31.881Z,999.25
2019-04-03T03:41:31.838Z,999.16
2019-04-03T03:42:32.208Z,999.18
2019-04-03T03:43:32.145Z,999.23
2019-04-03T03:44:31.842Z,999.16
2019-04-03T03:45:31.818Z,999.17
2019-04-03T03:46:31.783Z,999.21
2019-04-03T03:47:34.282Z,999.15
2019-04-03T03:48:31.795Z,999.19
2019-04-03T03:49:31.766Z,999.13
2019-04-03T03:50:31.746Z,999.18
2019-04-03T03:51:32.035Z,999.15
2019-04-03T03:52:36.150Z,999.21
2019-04-03T03:53:31.702Z,999.19
2019-04-03T03:54:31.883Z,999.16
2019-04-03T03:55:31.835Z,999.19
2019-04-03T03:56:32.645Z,999.22
2019-04-03T03:57:31.705Z,999.19
2019-04-03T03:58:31.689Z,999.19
2019-04-03T03:59:31.645Z,999.21
2019-04-03T04:00:31.842Z,999.14
2019-04-03T04:01:32.628Z,999.19
2019-04-03T04:02:31.639Z,999.20
2019-04-03T04:03:31.709Z,999.10
2019-04-03T04:04:31.716Z,999.14
2019-04-03T04:05:31.845Z,999.11
2019-04-03T04:06:35.027Z,999.16
2019-04-03T04:07:35.732Z,999.17
2019-04-03T04:08:33.219Z,999.09
2019-04-03T04:09:31.546Z,999.12
2019-04-03T04:10:35.447Z,999.10
2019-04-03T04:11:32.405Z,999.12
2019-04-03T04:12:31.504Z,999.12
2019-04-03T04:13:31.519Z,999.14
2019-04-03T04:14:31.827Z,999.08
2019-04-03T04:15:31.857Z,999.14
2019-04-03T04:16:35.586Z,999.17
2019-04-03T04:17:32.456Z,999.11
2019-04-03T04:18:31.432Z,999.19
2019-04-03T04:19:31.729Z,999.18
2019-04-03T04:20:31.414Z,999.18
2019-04-03T04:21:31.410Z,999.16
2019-04-03T04:22:31.547Z,999.16
2019-04-03T04:23:31.440Z,999.14
2019-04-03T04:24:31.392Z,999.11
2019-04-03T04:25:31.353Z,999.12
2019-04-03T04:26:31.602Z,999.09
2019-04-03T04:27:33.563Z,999.09
2019-04-03T04:28:31.324Z,999.04
2019-04-03T04:29:31.315Z,999.10
2019-04-03T04:30:31.341Z,999.07
2019-04-03T04:31:31.510Z,999.06
2019-04-03T04:32:31.283Z,999.03
2019-04-03T04:33:31.271Z,999.02
2019-04-03T04:34:31.456Z,998.99
2019-04-03T04:35:31.361Z,999.01
2019-04-03T04:36:31.310Z,999.08
2019-04-03T04:37:31.225Z,999.00
2019-04-03T04:38:31.206Z,999.05
2019-04-03T04:39:31.196Z,999.04
2019-04-03T04:40:31.658Z,998.99
2019-04-03T04:41:32.574Z,999.00
2019-04-03T04:42:31.439Z,998.99
2019-04-03T04:43:31.171Z,998.98
2019-04-03T04:44:31.244Z,998.98
2019-04-03T04:45:33.321Z,998.99
2019-04-03T04:46:31.147Z,998.94
2019-04-03T04:47:31.303Z,999.02
2019-04-03T04:48:31.098Z,998.96
2019-04-03T04:49:31.106Z,998.94
2019-04-03T04:50:31.084Z,998.97
2019-04-03T04:51:31.273Z,998.94
2019-04-03T04:52:31.242Z,998.87
2019-04-03T04:53:31.054Z,998.88
2019-04-03T04:54:31.350Z,998.83
2019-04-03T04:55:31.544Z,998.92
2019-04-03T04:56:31.022Z,998.89
2019-04-03T04:57:31.116Z,998.85
2019-04-03T04:58:31.004Z,998.91
2019-04-03T04:59:30.980Z,998.82
2019-04-03T05:00:30.981Z,998.81
2019-04-03T05:01:30.948Z,998.78
2019-04-03T05:02:31.187Z,998.80
2019-04-03T05:03:30.957Z,998.79
2019-04-03T05:04:31.131Z,998.78
2019-04-03T05:05:31.552Z,998.77
2019-04-03T05:06:30.905Z,998.78
2019-04-03T05:07:31.427Z,998.79
2019-04-03T05:08:32.961Z,998.80
2019-04-03T05:09:30.880Z,998.85
2019-04-03T05:10:30.883Z,998.86
2019-04-03T05:11:30.844Z,998.86
2019-04-03T05:12:30.858Z,998.80
2019-04-03T05:13:30.815Z,998.86
2019-04-03T05:14:31.005Z,998.85
2019-04-03T05:15:30.801Z,998.84
2019-04-03T05:16:30.782Z,998.86
2019-04-03T05:17:30.785Z,998.85
2019-04-03T05:18:30.800Z,998.89
2019-04-03T05:19:30.748Z,998.91
2019-04-03T05:20:30.812Z,998.91
2019-04-03T05:21:30.740Z,998.86
2019-04-03T05:22:30.719Z,998.87
2019-04-03T05:23:30.849Z,998.95
2019-04-03T05:24:30.858Z,998.89
2019-04-03T05:25:30.685Z,998.85
2019-04-03T05:26:32.182Z,998.88
2019-04-03T05:27:33.484Z,998.88
2019-04-03T05:28:30.823Z,998.94
2019-04-03T05:29:30.784Z,998.90
2019-04-03T05:30:30.665Z,998.92
2019-04-03T05:31:30.833Z,998.86
2019-04-03T05:32:30.794Z,998.88
2019-04-03T05:33:30.734Z,998.91
2019-04-03T05:34:30.591Z,998.94
2019-04-03T05:35:30.575Z,998.98
2019-04-03T05:36:30.587Z,998.97
2019-04-03T05:37:30.557Z,998.96
2019-04-03T05:38:30.547Z,998.99
2019-04-03T05:39:30.530Z,998.96
2019-04-03T05:40:30.538Z,998.98
2019-04-03T05:41:30.562Z,999.07
2019-04-03T05:42:30.777Z,999.03
2019-04-03T05:43:31.394Z,999.09
2019-04-03T05:44:32.901Z,999.00
2019-04-03T05:45:30.466Z,999.07
2019-04-03T05:46:30.479Z,999.05
2019-04-03T05:47:30.589Z,999.04
2019-04-03T05:48:30.429Z,999.06
2019-04-03T05:49:30.650Z,999.06
2019-04-03T05:50:30.415Z,999.09
2019-04-03T05:51:30.408Z,999.01
2019-04-03T05:52:30.538Z,999.05
2019-04-03T05:53:30.380Z,999.05
2019-04-03T05:54:30.368Z,999.08
2019-04-03T05:55:30.353Z,999.12
2019-04-03T05:56:30.566Z,999.13
2019-04-03T05:57:30.388Z,999.13
2019-04-03T05:58:30.319Z,999.14
2019-04-03T05:59:32.505Z,999.24
2019-04-03T06:00:30.548Z,999.22
2019-04-03T06:01:30.285Z,999.19
2019-04-03T06:02:30.303Z,999.17
2019-04-03T06:03:40.381Z,999.19
2019-04-03T06:04:31.480Z,999.27
2019-04-03T06:05:30.249Z,999.20
2019-04-03T06:06:30.532Z,999.22
2019-04-03T06:07:30.226Z,999.21
2019-04-03T06:08:30.232Z,999.16
2019-04-03T06:09:30.248Z,999.22
2019-04-03T06:10:32.376Z,999.18
2019-04-03T06:11:30.179Z,999.27
2019-04-03T06:12:30.184Z,999.24
2019-04-03T06:13:30.189Z,999.29
2019-04-03T06:14:30.151Z,999.25
2019-04-03T06:15:30.149Z,999.24
2019-04-03T06:16:30.238Z,999.25
2019-04-03T06:17:30.106Z,999.20
2019-04-03T06:18:32.059Z,999.28
2019-04-03T06:19:30.119Z,999.27
2019-04-03T06:20:30.080Z,999.27
2019-04-03T06:21:30.213Z,999.24
2019-04-03T06:22:30.057Z,999.28
2019-04-03T06:23:30.071Z,999.27
2019-04-03T06:24:30.302Z,999.31
2019-04-03T06:25:30.682Z,999.30
2019-04-03T06:26:30.035Z,999.30
2019-04-03T06:27:29.992Z,999.28
2019-04-03T06:28:30.178Z,999.31
2019-04-03T06:29:30.287Z,999.35
2019-04-03T06:30:29.961Z,999.27
2019-04-03T06:31:29.957Z,999.27
2019-04-03T06:32:30.242Z,999.25
2019-04-03T06:33:31.935Z,999.27
2019-04-03T06:34:29.936Z,999.25
2019-04-03T06:35:29.907Z,999.26
2019-04-03T06:36:29.901Z,999.27
2019-04-03T06:37:30.064Z,999.28
2019-04-03T06:38:29.870Z,999.25
2019-04-03T06:39:31.219Z,999.28
2019-04-03T06:40:29.906Z,999.27
2019-04-03T06:41:29.849Z,999.27
2019-04-03T06:42:29.831Z,999.30
2019-04-03T06:43:30.727Z,999.30
2019-04-03T06:44:29.807Z,999.30
2019-04-03T06:45:29.832Z,999.20
2019-04-03T06:46:30.317Z,999.23
2019-04-03T06:47:30.051Z,999.24
2019-04-03T06:48:29.764Z,999.26
2019-04-03T06:49:29.920Z,999.24
2019-04-03T06:50:29.747Z,999.25
2019-04-03T06:51:30.023Z,999.21
2019-04-03T06:52:29.771Z,999.22
2019-04-03T06:53:29.701Z,999.22
2019-04-03T06:54:31.688Z,999.29
2019-04-03T06:55:29.685Z,999.25
2019-04-03T06:56:29.672Z,999.28
2019-04-03T06:57:29.760Z,999.28
2019-04-03T06:58:38.244Z,999.31
2019-04-03T06:59:30.661Z,999.34
2019-04-03T07:00:29.641Z,999.25
2019-04-03T07:01:29.616Z,999.27
2019-04-03T07:02:32.015Z,999.26
2019-04-03T07:03:29.596Z,999.26
2019-04-03T07:04:29.730Z,999.30
2019-04-03T07:05:29.586Z,999.31
2019-04-03T07:06:29.581Z,999.31
2019-04-03T07:07:34.261Z,999.32
2019-04-03T07:08:34.918Z,999.31
2019-04-03T07:09:35.658Z,999.28
2019-04-03T07:10:30.514Z,999.26
2019-04-03T07:11:29.536Z,999.26
2019-04-03T07:12:29.586Z,999.26
2019-04-03T07:13:30.116Z,999.27
2019-04-03T07:14:29.509Z,999.29
2019-04-03T07:15:29.483Z,999.26
2019-04-03T07:16:29.452Z,999.33
2019-04-03T07:17:31.503Z,999.28
2019-04-03T07:18:29.428Z,999.31
2019-04-03T07:19:29.416Z,999.32
2019-04-03T07:20:29.635Z,999.36
2019-04-03T07:21:29.414Z,999.33
2019-04-03T07:22:29.383Z,999.34
2019-04-03T07:23:30.210Z,999.34
2019-04-03T07:24:31.531Z,999.35
2019-04-03T07:25:29.359Z,999.34
2019-04-03T07:26:29.341Z,999.35
2019-04-03T07:27:29.332Z,999.39
2019-04-03T07:28:30.625Z,999.37
2019-04-03T07:29:29.549Z,999.27
2019-04-03T07:30:29.292Z,999.26
2019-04-03T07:31:29.577Z,999.26
2019-04-03T07:32:29.270Z,999.28
2019-04-03T07:33:29.441Z,999.34
2019-04-03T07:34:29.289Z,999.29
2019-04-03T07:35:29.341Z,999.29
2019-04-03T07:36:29.233Z,999.28
2019-04-03T07:37:29.355Z,999.29
2019-04-03T07:38:29.208Z,999.26
2019-04-03T07:39:29.498Z,999.24
2019-04-03T07:40:29.199Z,999.26
2019-04-03T07:41:29.174Z,999.26
2019-04-03T07:42:29.219Z,999.23
2019-04-03T07:43:29.158Z,999.24
2019-04-03T07:44:30.553Z,999.21
2019-04-03T07:45:29.130Z,999.21
2019-04-03T07:46:29.128Z,999.21
2019-04-03T07:47:29.328Z,999.15
2019-04-03T07:48:29.398Z,999.16
2019-04-03T07:49:29.093Z,999.26
2019-04-03T07:50:29.090Z,999.20
2019-04-03T07:51:29.061Z,999.19
2019-04-03T07:52:29.059Z,999.15
2019-04-03T07:53:29.047Z,999.11
2019-04-03T07:54:29.056Z,999.10
2019-04-03T07:55:29.029Z,999.06
2019-04-03T07:56:29.037Z,999.04
2019-04-03T07:57:29.737Z,999.00
2019-04-03T07:58:31.881Z,998.95
2019-04-03T07:59:28.978Z,998.92
2019-04-03T08:00:28.993Z,998.88
2019-04-03T08:01:28.959Z,998.87
2019-04-03T08:02:29.126Z,998.87
2019-04-03T08:03:29.028Z,998.86
2019-04-03T08:04:29.159Z,998.90
2019-04-03T08:05:30.939Z,998.96
2019-04-03T08:06:29.052Z,998.97
2019-04-03T08:07:29.194Z,999.01
2019-04-03T08:08:28.911Z,998.98
2019-04-03T08:09:29.057Z,998.98
2019-04-03T08:10:30.235Z,999.03
2019-04-03T08:11:29.141Z,999.05
2019-04-03T08:12:28.942Z,999.09
2019-04-03T08:13:28.901Z,999.12
2019-04-03T08:14:28.809Z,999.14
2019-04-03T08:15:28.804Z,999.23
2019-04-03T08:16:28.820Z,999.23
2019-04-03T08:17:28.777Z,999.29
2019-04-03T08:18:28.774Z,999.36
2019-04-03T08:19:28.765Z,999.37
2019-04-03T08:20:30.674Z,999.43
2019-04-03T08:21:30.513Z,999.36
2019-04-03T08:22:28.735Z,999.36
2019-04-03T08:23:28.719Z,999.35
2019-04-03T08:24:29.033Z,999.36
2019-04-03T08:25:28.724Z,999.32
2019-04-03T08:26:28.881Z,999.31
2019-04-03T08:27:28.938Z,999.33
2019-04-03T08:28:30.342Z,999.34
2019-04-03T08:29:28.679Z,999.26
2019-04-03T08:30:28.637Z,999.30
2019-04-03T08:31:28.629Z,999.26
2019-04-03T08:32:28.669Z,999.29
2019-04-03T08:33:28.646Z,999.27
2019-04-03T08:34:30.742Z,999.27
2019-04-03T08:35:28.671Z,999.24
2019-04-03T08:36:28.572Z,999.20
2019-04-03T08:37:31.626Z,999.19
2019-04-03T08:38:28.595Z,999.22
2019-04-03T08:39:28.544Z,999.20
2019-04-03T08:40:28.858Z,999.16
2019-04-03T08:41:28.518Z,999.12
2019-04-03T08:42:29.839Z,999.06
2019-04-03T08:43:31.364Z,999.02
2019-04-03T08:44:28.477Z,999.08
2019-04-03T08:45:28.738Z,999.16
2019-04-03T08:46:28.986Z,999.10
2019-04-03T08:47:28.665Z,999.10
2019-04-03T08:48:28.455Z,999.09
2019-04-03T08:49:28.514Z,999.11
2019-04-03T08:50:29.120Z,999.10
2019-04-03T08:51:28.401Z,999.14
2019-04-03T08:52:28.459Z,999.14
2019-04-03T08:53:28.383Z,999.13
2019-04-03T08:54:28.607Z,999.19
2019-04-03T08:55:28.582Z,999.21
2019-04-03T08:56:28.463Z,999.20
2019-04-03T08:57:28.335Z,999.23
2019-04-03T08:58:28.334Z,999.24
2019-04-03T08:59:28.737Z,999.26
2019-04-03T09:00:31.589Z,999.23
2019-04-03T09:01:28.299Z,999.22
2019-04-03T09:02:28.512Z,999.24
2019-04-03T09:03:28.306Z,999.33
2019-04-03T09:04:28.332Z,999.31
2019-04-03T09:05:28.458Z,999.34
2019-04-03T09:06:28.247Z,999.29
2019-04-03T09:07:28.228Z,999.31
2019-04-03T09:08:28.512Z,999.32
2019-04-03T09:09:29.817Z,999.29
2019-04-03T09:10:29.892Z,999.30
2019-04-03T09:11:28.180Z,999.29
2019-04-03T09:12:28.173Z,999.24
2019-04-03T09:13:28.187Z,999.30
2019-04-03T09:14:28.164Z,999.22
2019-04-03T09:15:28.668Z,999.21
2019-04-03T09:16:28.827Z,999.24
2019-04-03T09:17:28.117Z,999.30
2019-04-03T09:18:30.327Z,999.30
2019-04-03T09:19:28.141Z,999.27
2019-04-03T09:20:28.082Z,999.24
2019-04-03T09:21:28.105Z,999.25
2019-04-03T09:22:28.305Z,999.27
2019-04-03T09:23:28.336Z,999.28
2019-04-03T09:24:29.395Z,999.30
2019-04-03T09:25:29.550Z,999.26
2019-04-03T09:26:28.022Z,999.25
2019-04-03T09:27:28.357Z,999.25
2019-04-03T09:28:28.023Z,999.27
2019-04-03T09:29:27.980Z,999.32
2019-04-03T09:30:27.969Z,999.35
2019-04-03T09:31:27.960Z,999.35
2019-04-03T09:32:28.103Z,999.35
2019-04-03T09:33:29.367Z,999.33
2019-04-03T09:34:29.664Z,999.33
2019-04-03T09:35:27.919Z,999.33
2019-04-03T09:36:28.356Z,999.32
2019-04-03T09:37:27.896Z,999.40
2019-04-03T09:38:27.931Z,999.40
2019-04-03T09:39:27.879Z,999.36
2019-04-03T09:40:27.868Z,999.41
2019-04-03T09:41:27.874Z,999.42
2019-04-03T09:42:27.848Z,999.44
2019-04-03T09:43:27.876Z,999.39
2019-04-03T09:44:27.844Z,999.45
2019-04-03T09:45:28.606Z,999.41
2019-04-03T09:46:30.534Z,999.41
2019-04-03T09:47:27.798Z,999.44
2019-04-03T09:48:27.922Z,999.41
2019-04-03T09:49:27.835Z,999.35
2019-04-03T09:50:28.036Z,999.29
2019-04-03T09:51:27.990Z,999.23
2019-04-03T09:52:38.385Z,999.18
2019-04-03T09:53:28.719Z,999.16
2019-04-03T09:54:28.685Z,999.17
2019-04-03T09:55:27.706Z,999.15
2019-04-03T09:56:27.774Z,999.12
2019-04-03T09:57:30.182Z,999.08
2019-04-03T09:58:27.673Z,999.00
2019-04-03T09:59:27.689Z,999.03
2019-04-03T10:00:27.641Z,999.02
2019-04-03T10:01:27.634Z,999.03
2019-04-03T10:02:27.681Z,999.00
2019-04-03T10:03:30.299Z,999.00
2019-04-03T10:04:27.621Z,998.98
2019-04-03T10:05:28.935Z,998.97
2019-04-03T10:06:30.410Z,998.97
2019-04-03T10:07:28.573Z,998.94
2019-04-03T10:08:27.579Z,998.92
2019-04-03T10:09:27.678Z,998.87
2019-04-03T10:10:27.832Z,998.80
2019-04-03T10:11:27.526Z,998.82
2019-04-03T10:12:27.658Z,998.78
2019-04-03T10:13:27.496Z,998.75
2019-04-03T10:14:28.536Z,998.82
2019-04-03T10:15:30.318Z,998.76
2019-04-03T10:16:27.488Z,998.74
2019-04-03T10:17:27.841Z,998.72
2019-04-03T10:18:27.441Z,998.75
2019-04-03T10:19:27.472Z,998.75
2019-04-03T10:20:27.528Z,998.66
2019-04-03T10:21:27.406Z,998.72
2019-04-03T10:22:27.425Z,998.68
2019-04-03T10:23:29.100Z,998.71
2019-04-03T10:24:28.949Z,998.75
2019-04-03T10:25:27.376Z,998.74
2019-04-03T10:26:27.910Z,998.72
2019-04-03T10:27:27.343Z,998.72
2019-04-03T10:28:27.584Z,998.66
2019-04-03T10:29:27.455Z,998.76
2019-04-03T10:30:27.447Z,998.75
2019-04-03T10:31:27.340Z,998.79
2019-04-03T10:32:28.226Z,998.72
2019-04-03T10:33:27.585Z,998.76
2019-04-03T10:34:27.291Z,998.77
2019-04-03T10:35:27.511Z,998.81
2019-04-03T10:36:27.386Z,998.75
2019-04-03T10:37:27.245Z,998.82
2019-04-03T10:38:27.298Z,998.81
2019-04-03T10:39:27.210Z,998.84
2019-04-03T10:40:27.348Z,998.79
2019-04-03T10:41:28.750Z,998.80
2019-04-03T10:42:27.214Z,998.79
2019-04-03T10:43:27.214Z,998.84
2019-04-03T10:44:27.363Z,998.83
2019-04-03T10:45:27.150Z,998.82
2019-04-03T10:46:27.448Z,998.81
2019-04-03T10:47:39.770Z,998.82
2019-04-03T10:48:28.690Z,998.83
2019-04-03T10:49:27.243Z,998.78
2019-04-03T10:50:27.479Z,998.82
2019-04-03T10:51:27.345Z,998.77
2019-04-03T10:52:27.225Z,998.71
2019-04-03T10:53:27.063Z,998.66
2019-04-03T10:54:27.268Z,998.75
2019-04-03T10:55:28.373Z,998.73
2019-04-03T10:56:27.043Z,998.72
2019-04-03T10:57:27.084Z,998.66
2019-04-03T10:58:27.013Z,998.66
2019-04-03T10:59:27.033Z,998.71
2019-04-03T11:00:28.820Z,998.74
2019-04-03T11:01:26.993Z,998.65
2019-04-03T11:02:26.960Z,998.64
2019-04-03T11:03:26.961Z,998.64
2019-04-03T11:04:27.191Z,998.63
2019-04-03T11:05:27.148Z,998.62
2019-04-03T11:06:26.951Z,998.55
2019-04-03T11:07:26.906Z,998.55
2019-04-03T11:08:26.968Z,998.51
2019-04-03T11:09:26.880Z,998.55
2019-04-03T11:10:26.868Z,998.50
2019-04-03T11:11:27.147Z,998.57
2019-04-03T11:12:26.883Z,998.52
2019-04-03T11:13:26.873Z,998.57
2019-04-03T11:14:27.150Z,998.55
2019-04-03T11:15:27.058Z,998.46
2019-04-03T11:16:26.801Z,998.38
2019-04-03T11:17:26.790Z,998.34
2019-04-03T11:18:27.057Z,998.37
2019-04-03T11:19:26.881Z,998.37
2019-04-03T11:20:26.772Z,998.39
2019-04-03T11:21:26.744Z,998.33
2019-04-03T11:22:39.179Z,998.37
2019-04-03T11:23:38.307Z,998.32
2019-04-03T11:24:27.833Z,998.39
2019-04-03T11:25:26.720Z,998.41
2019-04-03T11:26:26.731Z,998.35
2019-04-03T11:27:40.844Z,998.46
2019-04-03T11:28:27.671Z,998.45
2019-04-03T11:29:26.732Z,998.46
2019-04-03T11:30:26.682Z,998.47
2019-04-03T11:31:28.971Z,998.51
2019-04-03T11:32:26.629Z,998.51
2019-04-03T11:33:26.610Z,998.54
2019-04-03T11:34:26.844Z,998.49
2019-04-03T11:35:26.618Z,998.49
2019-04-03T11:36:30.098Z,998.47
2019-04-03T11:37:26.572Z,998.43
2019-04-03T11:38:29.085Z,998.45
2019-04-03T11:39:26.547Z,998.38
2019-04-03T11:40:26.883Z,998.44
2019-04-03T11:41:26.554Z,998.33
2019-04-03T11:42:29.452Z,998.34
2019-04-03T11:43:26.564Z,998.30
2019-04-03T11:44:26.511Z,998.28
2019-04-03T11:45:26.505Z,998.16
2019-04-03T11:46:26.506Z,998.13
2019-04-03T11:47:26.830Z,998.17
2019-04-03T11:48:27.362Z,998.11
2019-04-03T11:49:26.762Z,998.13
2019-04-03T11:50:26.608Z,998.13
2019-04-03T11:51:28.930Z,998.04
2019-04-03T11:52:26.512Z,998.04
2019-04-03T11:53:26.431Z,997.94
2019-04-03T11:54:26.435Z,997.90
2019-04-03T11:55:26.658Z,997.88
2019-04-03T11:56:26.366Z,997.88
2019-04-03T11:57:27.220Z,997.89
2019-04-03T11:58:26.683Z,997.89
2019-04-03T11:59:26.366Z,997.78
2019-04-03T12:00:26.581Z,997.79
2019-04-03T12:01:26.591Z,997.83
2019-04-03T12:02:26.297Z,997.83
2019-04-03T12:03:26.719Z,997.86
2019-04-03T12:04:26.298Z,997.88
2019-04-03T12:05:26.302Z,997.89
2019-04-03T12:06:26.471Z,997.89
2019-04-03T12:07:26.273Z,997.87
2019-04-03T12:08:28.164Z,997.87
2019-04-03T12:09:26.218Z,997.84
2019-04-03T12:10:26.413Z,997.85
2019-04-03T12:11:26.248Z,997.85
2019-04-03T12:12:26.307Z,997.91
2019-04-03T12:13:26.306Z,997.98
2019-04-03T12:14:26.164Z,998.04
2019-04-03T12:15:26.180Z,998.04
2019-04-03T12:16:26.611Z,998.03
2019-04-03T12:17:28.782Z,998.05
2019-04-03T12:18:26.240Z,998.02
2019-04-03T12:19:26.122Z,998.03
2019-04-03T12:20:26.189Z,998.04
2019-04-03T12:21:26.113Z,997.91
2019-04-03T12:22:26.290Z,997.97
2019-04-03T12:23:27.202Z,998.01
2019-04-03T12:24:26.182Z,997.93
2019-04-03T12:25:26.367Z,997.92
2019-04-03T12:26:26.032Z,997.92
2019-04-03T12:27:26.293Z,997.91
2019-04-03T12:28:26.235Z,997.88